Time;durP1;ratioP1;P1;durP2;ratioP2;P2;SDS_P1;SDS_P2;PMS_P1;PMS_P2;Temp;Humidity;BMP_temperature;BMP_pressure;BME280_temperature;BME280_humidity;BME280_pressure;Samples;Min_cycle;Max_cycle;Signal;HPM_P1;HPM_P2
2022/06/04 00:00:39;;;;;;;;;;;;;;;;;;5065470;28;19912;-52
2022/06/04 00:03:04;;;;;;;;;;;;;;;;;;5066274;28;19965;-50
2022/06/04 00:05:31;;;;;;;;;;;;;;;;;;5084123;28;20322;-51
2022/06/04 00:07:57;;;;;;;;;;;;;;;;;;5057367;28;19908;-51
2022/06/04 00:15:52;;;;;;;;;;;;;;;;;;5056402;28;19915;-49
2022/06/04 00:18:19;;;;;;;;;;;;;;;;;;5047092;28;20003;-51
2022/06/04 00:20:45;;;;;;;;;;;;;;;;;;5049202;28;20003;-49
2022/06/04 00:23:11;;;;;;;;;;;;;;;;;;5066031;28;20363;-49
2022/06/04 00:25:38;;;;;;;;;;;;;;;;;;5070247;28;20371;-50
2022/06/04 00:28:04;;;;;;;;;;;;;;;;;;5068730;28;19977;-50
2022/06/04 00:30:30;;;;;;;;;;;;;;;;;;5069531;28;20565;-50
2022/06/04 00:32:56;;;;;;;;;;;;;;;;;;5068178;28;19923;-50
2022/06/04 00:35:22;;;;;;;;;;;;;;;;;;5068834;28;19927;-48
2022/06/04 00:37:51;;;;;;;;;;;;;;;;;;5067713;28;20390;-50
2022/06/04 00:40:17;;;;;;;;;;;;;;;;;;5048559;28;19958;-49
2022/06/04 00:42:43;;;;;;;;;;;;;;;;;;5048394;28;19904;-48
2022/06/04 00:45:09;;;;;;;;;;;;;;;;;;5048556;28;19905;-49
2022/06/04 00:47:36;;;;;;;;;;;;;;;;;;5048089;28;19944;-50
2022/06/04 00:50:02;;;;;;;;;;;;;;;;;;5050002;28;19912;-48
2022/06/04 00:52:28;;;;;;;;;;;;;;;;;;5048601;28;19911;-51
2022/06/04 00:54:54;;;;;;;;;;;;;;;;;;5047954;28;20431;-52
2022/06/04 00:57:20;;;;;;;;;;;;;;;;;;5048392;28;19912;-47
2022/06/04 00:59:46;;;;;;;;;;;;;;;;;;5047821;28;20023;-50
2022/06/04 01:02:13;;;;;;;;;;;;;;;;;;5048198;28;20000;-49
2022/06/04 01:04:47;;;;;;;;;;;;;;;;;;5050362;28;19919;-50
2022/06/04 01:07:13;;;;;;;;;;;;;;;;;;5068641;28;19908;-49
2022/06/04 01:09:39;;;;;;;;;;;;;;;;;;5063311;28;19905;-51
2022/06/04 01:12:11;;;;;;;;;;;;;;;;;;5048010;28;19944;-51
2022/06/04 01:14:37;;;;;;;;;;;;;;;;;;5048535;28;19916;-50
2022/06/04 01:17:03;;;;;;;;;;;;;;;;;;5047555;28;20481;-51
2022/06/04 01:19:29;;;;;;;;;;;;;;;;;;5064651;28;19912;-47
2022/06/04 01:21:55;;;;;;;;;;;;;;;;;;5067463;28;19939;-49
2022/06/04 01:24:21;;;;;;;;;;;;;;;;;;5067925;28;19974;-47
2022/06/04 01:26:47;;;;;;;;;;;;;;;;;;5067839;28;19944;-51
2022/06/04 01:29:13;;;;;;;;;;;;;;;;;;5068211;28;19910;-50
2022/06/04 01:31:39;;;;;;;;;;;;;;;;;;5065468;28;19905;-51
2022/06/04 01:34:05;;;;;;;;;;;;;;;;;;5047628;28;20003;-50
2022/06/04 01:36:32;;;;;;;;;;;;;;;;;;5047443;28;19927;-51
2022/06/04 01:38:58;;;;;;;;;;;;;;;;;;5048734;28;20277;-48
2022/06/04 01:41:24;;;;;;;;;;;;;;;;;;5047487;28;19987;-47
2022/06/04 01:43:50;;;;;;;;;;;;;;;;;;5047260;28;20003;-48
2022/06/04 01:46:16;;;;;;;;;;;;;;;;;;5047973;28;19904;-51
2022/06/04 01:48:42;;;;;;;;;;;;;;;;;;5047072;28;19963;-52
2022/06/04 01:51:08;;;;;;;;;;;;;;;;;;5047285;28;19908;-50
2022/06/04 01:53:34;;;;;;;;;;;;;;;;;;5047986;28;19931;-51
2022/06/04 01:56:00;;;;;;;;;;;;;;;;;;5046884;28;19934;-51
2022/06/04 01:58:26;;;;;;;;;;;;;;;;;;5046949;28;20415;-51
2022/06/04 02:00:52;;;;;;;;;;;;;;;;;;5046877;28;20019;-50
2022/06/04 02:03:18;;;;;;;;;;;;;;;;;;5049471;28;19999;-51
2022/06/04 02:05:44;;;;;;;;;;;;;;;;;;5067576;28;19905;-51
2022/06/04 02:08:10;;;;;;;;;;;;;;;;;;5047686;28;19909;-50
2022/06/04 02:10:36;;;;;;;;;;;;;;;;;;5046683;28;19912;-49
2022/06/04 02:13:02;;;;;;;;;;;;;;;;;;5046985;28;19909;-49
2022/06/04 02:15:27;;;;;;;;;;;;;;;;;;5047035;28;19971;-52
2022/06/04 02:17:57;;;;;;;;;;;;;;;;;;5051305;28;19912;-47
2022/06/04 02:20:23;;;;;;;;;;;;;;;;;;5066389;28;20399;-47
2022/06/04 02:22:49;;;;;;;;;;;;;;;;;;5066511;28;20387;-48
2022/06/04 02:25:15;;;;;;;;;;;;;;;;;;5066956;28;19962;-49
2022/06/04 02:27:43;;;;;;;;;;;;;;;;;;5066730;28;19908;-50
2022/06/04 02:30:09;;;;;;;;;;;;;;;;;;5065986;28;19958;-50
2022/06/04 02:32:35;;;;;;;;;;;;;;;;;;5066734;28;19934;-48
2022/06/04 02:35:01;;;;;;;;;;;;;;;;;;5066614;28;20000;-48
2022/06/04 02:37:27;;;;;;;;;;;;;;;;;;5066652;28;19908;-47
2022/06/04 02:39:53;;;;;;;;;;;;;;;;;;5061294;28;19913;-51
2022/06/04 02:42:19;;;;;;;;;;;;;;;;;;5046851;28;19904;-48
2022/06/04 02:44:45;;;;;;;;;;;;;;;;;;5046992;28;19971;-51
2022/06/04 02:47:11;;;;;;;;;;;;;;;;;;5046271;28;19905;-50
2022/06/04 02:49:39;;;;;;;;;;;;;;;;;;5045858;28;19995;-48
2022/06/04 02:52:04;;;;;;;;;;;;;;;;;;5065855;28;19979;-51
2022/06/04 02:54:30;;;;;;;;;;;;;;;;;;5066536;28;20331;-51
2022/06/04 02:56:56;;;;;;;;;;;;;;;;;;5066275;28;19908;-46
2022/06/04 02:59:22;;;;;;;;;;;;;;;;;;5066495;28;19912;-47
2022/06/04 03:01:48;;;;;;;;;;;;;;;;;;5066147;28;20018;-49
2022/06/04 03:04:14;;;;;;;;;;;;;;;;;;5065191;28;19912;-51
2022/06/04 03:06:40;;;;;;;;;;;;;;;;;;5047601;28;19913;-50
2022/06/04 03:09:06;;;;;;;;;;;;;;;;;;5045820;28;19943;-50
2022/06/04 03:11:32;;;;;;;;;;;;;;;;;;5046387;28;19955;-49
2022/06/04 03:13:58;;;;;;;;;;;;;;;;;;5046221;28;19912;-52
2022/06/04 03:16:24;;;;;;;;;;;;;;;;;;5054290;28;19934;-49
2022/06/04 03:18:50;;;;;;;;;;;;;;;;;;5066152;28;19905;-51
2022/06/04 03:21:16;;;;;;;;;;;;;;;;;;5066862;28;19911;-49
2022/06/04 03:23:42;;;;;;;;;;;;;;;;;;5065770;28;19905;-51
2022/06/04 03:26:08;;;;;;;;;;;;;;;;;;5066385;28;19915;-51
2022/06/04 03:28:34;;;;;;;;;;;;;;;;;;5065918;28;20048;-50
2022/06/04 03:31:00;;;;;;;;;;;;;;;;;;5065768;28;19915;-49
2022/06/04 03:33:26;;;;;;;;;;;;;;;;;;5066055;28;19995;-47
2022/06/04 03:35:52;;;;;;;;;;;;;;;;;;5066173;28;19908;-50
2022/06/04 03:38:17;;;;;;;;;;;;;;;;;;5066621;28;19962;-50
2022/06/04 03:40:44;;;;;;;;;;;;;;;;;;5059287;28;19924;-49
2022/06/04 03:43:10;;;;;;;;;;;;;;;;;;5049963;28;19911;-46
2022/06/04 03:45:36;;;;;;;;;;;;;;;;;;5049306;28;20342;-51
2022/06/04 03:48:02;;;;;;;;;;;;;;;;;;5049751;28;19905;-51
2022/06/04 03:50:29;;;;;;;;;;;;;;;;;;5049364;28;19908;-50
2022/06/04 03:52:55;;;;;;;;;;;;;;;;;;5049541;28;19919;-50
2022/06/04 03:55:21;;;;;;;;;;;;;;;;;;5055349;28;19912;-49
2022/06/04 03:57:50;;;;;;;;;;;;;;;;;;5069785;28;19904;-51
2022/06/04 04:00:16;;;;;;;;;;;;;;;;;;5069959;28;20307;-49
2022/06/04 04:02:42;;;;;;;;;;;;;;;;;;5069247;28;19904;-47
2022/06/04 04:05:08;;;;;;;;;;;;;;;;;;5068160;28;19950;-48
2022/06/04 04:07:34;;;;;;;;;;;;;;;;;;5069206;28;19908;-50
2022/06/04 04:10:00;;;;;;;;;;;;;;;;;;5069353;28;19943;-47
2022/06/04 04:12:26;;;;;;;;;;;;;;;;;;5066524;28;20006;-51
2022/06/04 04:14:52;;;;;;;;;;;;;;;;;;5049082;28;19904;-50
2022/06/04 04:17:18;;;;;;;;;;;;;;;;;;5049729;28;20058;-47
2022/06/04 04:19:44;;;;;;;;;;;;;;;;;;5059698;28;20337;-47
2022/06/04 04:22:10;;;;;;;;;;;;;;;;;;5068944;28;20000;-49
2022/06/04 04:24:36;;;;;;;;;;;;;;;;;;5068866;28;19912;-48
2022/06/04 04:27:02;;;;;;;;;;;;;;;;;;5068914;28;19970;-50
2022/06/04 04:29:27;;;;;;;;;;;;;;;;;;5067548;28;19912;-48
2022/06/04 04:31:53;;;;;;;2.08;0.77;;;;;;;;;;5068049;28;20401;-46
2022/06/04 04:34:19;;;;;;;1.15;0.60;;;;;;;;;;5066334;28;20111;-46
2022/06/04 04:36:45;;;;;;;3.38;0.82;;;;;;;;;;5048671;28;20602;-49
2022/06/04 04:39:12;;;;;;;0.90;0.70;;;;;;;;;;5048369;28;20496;-49
2022/06/04 04:41:38;;;;;;;1.05;0.63;;;;;;;;;;5048256;28;20039;-46
2022/06/04 04:44:04;;;;;;;1.67;0.63;;;;;;;;;;5048240;28;20488;-46
2022/06/04 04:46:30;;;;;;;1.63;0.90;;;;;;;;;;5048524;28;20025;-48
2022/06/04 04:48:56;;;;;;;1.52;0.60;;;;;;;;;;5047835;28;20048;-48
2022/06/04 04:51:24;;;;;;;3.28;0.82;;;;;;;;;;5048171;28;20560;-46
2022/06/04 04:53:50;;;;;;;0.70;0.40;;;;;;;;;;5047188;28;20135;-47
2022/06/04 04:56:18;;;;;;;0.75;0.60;;;;;;;;;;5048472;28;20040;-46
2022/06/04 04:58:44;;;;;;;1.75;0.50;;;;;;;;;;5048392;28;20017;-47
2022/06/04 05:01:10;;;;;;;;;;;;;;;;;;5048841;28;20033;-51
2022/06/04 05:03:36;;;;;;;;;;;;;;;;;;5068164;28;20581;-49
2022/06/04 05:06:02;;;;;;;;;;;;;;;;;;5068155;28;19904;-47
2022/06/04 05:08:28;;;;;;;;;;;;;;;;;;5067606;28;19940;-50
2022/06/04 05:10:54;;;;;;;;;;;;;;;;;;5068439;28;19951;-48
2022/06/04 05:13:20;;;;;;;;;;;;;;;;;;5072872;28;19908;-49
2022/06/04 05:15:46;;;;;;;;;;;;;;;;;;5075415;28;19927;-48
2022/06/04 05:18:12;;;;;;;;;;;;;;;;;;5067832;28;19911;-51
2022/06/04 05:20:38;;;;;;;;;;;;;;;;;;5067597;28;19920;-49
2022/06/04 05:23:04;;;;;;;;;;;;;;;;;;5067573;28;19999;-47
2022/06/04 05:25:30;;;;;;;;;;;;;;;;;;5067332;28;19908;-50
2022/06/04 05:27:56;;;;;;;;;;;;;;;;;;5067626;28;19904;-51
2022/06/04 05:30:24;;;;;;;;;;;;;;;;;;5067585;28;20014;-51
2022/06/04 05:32:49;;;;;;;;;;;;;;;;;;5067424;28;20393;-47
2022/06/04 05:35:15;;;;;;;;;;;;;;;;;;5067830;28;19999;-50
2022/06/04 05:37:41;;;;;;;;;;;;;;;;;;5067541;28;19953;-50
2022/06/04 05:40:07;;;;;;;;;;;;;;;;;;5067142;28;20006;-51
2022/06/04 05:42:33;;;;;;;;;;;;;;;;;;5067454;28;19908;-49
2022/06/04 05:45:00;;;;;;;;;;;;;;;;;;5067344;28;19915;-50
2022/06/04 05:47:26;;;;;;;;;;;;;;;;;;5067042;28;20501;-48
2022/06/04 05:49:52;;;;;;;;;;;;;;;;;;5067387;28;20384;-51
2022/06/04 05:52:17;;;;;;;;;;;;;;;;;;5067456;28;19987;-48
2022/06/04 05:54:44;;;;;;;;;;;;;;;;;;5067565;28;19923;-48
2022/06/04 05:57:10;;;;;;;;;;;;;;;;;;5069569;28;19908;-50
2022/06/04 05:59:36;;;;;;;;;;;;;;;;;;5054154;28;19913;-49
2022/06/04 06:02:02;;;;;;;;;;;;;;;;;;5051100;28;20031;-51
2022/06/04 06:04:28;;;;;;;;;;;;;;;;;;5069108;28;19999;-49
2022/06/04 06:06:57;;;;;;;;;;;;;;;;;;5063471;28;19913;-51
2022/06/04 06:09:23;;;;;;;;;;;;;;;;;;5057476;28;20007;-51
2022/06/04 06:11:49;;;;;;;;;;;;;;;;;;5076926;28;20372;-48
2022/06/04 06:14:15;;;;;;;;;;;;;;;;;;5067248;28;19958;-49
2022/06/04 06:16:41;;;;;;;;;;;;;;;;;;5066599;28;19908;-47
2022/06/04 06:19:07;;;;;;;;;;;;;;;;;;5066919;28;19979;-47
2022/06/04 06:21:33;;;;;;;;;;;;;;;;;;5054358;28;19909;-49
2022/06/04 06:23:59;;;;;;;;;;;;;;;;;;5054999;28;19912;-48
2022/06/04 06:26:25;;;;;;;;;;;;;;;;;;5067138;28;19916;-47
2022/06/04 06:28:51;;;;;;;;;;;;;;;;;;5082879;28;19909;-47
2022/06/04 06:31:17;;;;;;;;;;;;;;;;;;5073563;28;19915;-51
2022/06/04 06:33:43;;;;;;;;;;;;;;;;;;5068916;28;19948;-49
2022/06/04 06:36:09;;;;;;;;;;;;;;;;;;5062662;28;19927;-46
2022/06/04 06:38:35;;;;;;;;;;;;;;;;;;5065092;28;19923;-49
2022/06/04 06:41:02;;;;;;;;;;;;;;;;;;5066416;28;19912;-47
2022/06/04 06:43:32;;;;;;;;;;;;;;;;;;5065623;28;20359;-49
2022/06/04 06:45:58;;;;;;;;;;;;;;;;;;5064705;28;19913;-48
2022/06/04 06:48:25;;;;;;;;;;;;;;;;;;5066172;28;19935;-50
2022/06/04 06:50:51;;;;;;;;;;;;;;;;;;5066219;28;19905;-50
2022/06/04 06:53:17;;;;;;;;;;;;;;;;;;5066713;28;20341;-47
2022/06/04 06:55:43;;;;;;;;;;;;;;;;;;5066267;28;19958;-47
2022/06/04 06:58:09;;;;;;;;;;;;;;;;;;5065811;28;19947;-48
2022/06/04 07:00:35;;;;;;;;;;;;;;;;;;5071601;28;19926;-47
2022/06/04 07:03:02;;;;;;;;;;;;;;;;;;5079426;28;20424;-50
2022/06/04 07:05:28;;;;;;;;;;;;;;;;;;5055571;28;20271;-50
2022/06/04 07:07:54;;;;;;;;;;;;;;;;;;5063577;28;19999;-47
2022/06/04 07:10:20;;;;;;;;;;;;;;;;;;5066074;28;20177;-46
2022/06/04 07:12:46;;;;;;;;;;;;;;;;;;5065724;28;20290;-47
2022/06/04 07:15:12;;;;;;;;;;;;;;;;;;5080289;28;20582;-47
2022/06/04 07:17:38;;;;;;;;;;;;;;;;;;5090233;28;19904;-49
2022/06/04 07:20:04;;;;;;;;;;;;;;;;;;5090358;28;19923;-46
2022/06/04 07:22:30;;;;;;;;;;;;;;;;;;5089046;28;19915;-49
2022/06/04 07:24:57;;;;;;;;;;;;;;;;;;5088387;28;19918;-45
2022/06/04 07:27:23;;;;;;;;;;;;;;;;;;5088750;28;19904;-47
2022/06/04 07:29:50;;;;;;;;;;;;;;;;;;5088246;28;19904;-48
2022/06/04 07:32:16;;;;;;;;;;;;;;;;;;5089318;28;19960;-47
2022/06/04 07:34:42;;;;;;;;;;;;;;;;;;5088945;28;20378;-47
2022/06/04 07:37:09;;;;;;;;;;;;;;;;;;5088566;28;20022;-47
2022/06/04 07:39:35;;;;;;;;;;;;;;;;;;5088218;28;19923;-49
2022/06/04 07:42:01;;;;;;;;;;;;;;;;;;5088680;28;19903;-48
2022/06/04 07:44:27;;;;;;;;;;;;;;;;;;5088085;28;19904;-49
2022/06/04 07:46:53;;;;;;;;;;;;;;;;;;5088244;28;19911;-50
2022/06/04 07:49:20;;;;;;;;;;;;;;;;;;5081459;28;19936;-47
2022/06/04 07:51:46;;;;;;;;;;;;;;;;;;5067962;28;19966;-47
2022/06/04 07:54:12;;;;;;;;;;;;;;;;;;5068717;28;19936;-51
2022/06/04 07:56:37;;;;;;;;;;;;;;;;;;5067566;28;20303;-48
2022/06/04 07:59:04;;;;;;;;;;;;;;;;;;5067729;28;19911;-48
2022/06/04 08:01:30;;;;;;;;;;;;;;;;;;5067993;28;19908;-50
2022/06/04 08:03:56;;;;;;;;;;;;;;;;;;5067955;28;19909;-48
2022/06/04 08:06:22;;;;;;;;;;;;;;;;;;5067912;28;19908;-51
2022/06/04 08:08:54;;;;;;;;;;;;;;;;;;5067244;28;19958;-46
2022/06/04 08:11:33;;;;;;;;;;;;;;;;;;5067830;28;19958;-47
2022/06/04 08:14:00;;;;;;;;;;;;;;;;;;5067261;28;19910;-47
2022/06/04 08:16:25;;;;;;;;;;;;;;;;;;5067565;28;19908;-51
2022/06/04 08:18:51;;;;;;;;;;;;;;;;;;5067575;28;19911;-50
2022/06/04 08:21:17;;;;;;;;;;;;;;;;;;5067597;28;20341;-51
2022/06/04 08:23:44;;;;;;;;;;;;;;;;;;5067907;28;19998;-50
2022/06/04 08:26:10;;;;;;;;;;;;;;;;;;5067301;28;19908;-48
2022/06/04 08:28:36;;;;;;;;;;;;;;;;;;5066842;28;19939;-51
2022/06/04 08:31:02;;;;;;;;;;;;;;;;;;5067422;28;19904;-47
2022/06/04 08:33:28;;;;;;;;;;;;;;;;;;5067174;28;19908;-49
2022/06/04 08:35:55;;;;;;;;;;;;;;;;;;5067409;28;19909;-50
2022/06/04 08:38:21;;;;;;;;;;;;;;;;;;5067127;28;19943;-47
2022/06/04 08:40:47;;;;;;;;;;;;;;;;;;5066891;28;19952;-48
2022/06/04 08:43:13;;;;;;;;;;;;;;;;;;5067817;28;19911;-49
2022/06/04 08:45:39;;;;;;;;;;;;;;;;;;5066902;28;19908;-50
2022/06/04 08:48:05;;;;;;;;;;;;;;;;;;5066797;28;19913;-50
2022/06/04 08:50:31;;;;;;;;;;;;;;;;;;5066770;28;19912;-51
2022/06/04 08:52:56;;;;;;;;;;;;;;;;;;5066862;28;19912;-47
2022/06/04 08:58:07;;;;;;;;;;;;;;;;;;5066581;28;19914;-47
2022/06/04 09:00:33;;;;;;;;;;;;;;;;;;5064026;28;19944;-50
2022/06/04 09:02:59;;;;;;;;;;;;;;;;;;5047653;28;19936;-50
2022/06/04 09:05:26;;;;;;;;;;;;;;;;;;5046267;28;20405;-50
2022/06/04 09:07:54;;;;;;;;;;;;;;;;;;5046383;28;20268;-49
2022/06/04 09:10:20;;;;;;;;;;;;;;;;;;5046850;28;20384;-50
2022/06/04 09:12:46;;;;;;;;;;;;;;;;;;5046191;28;19963;-51
2022/06/04 09:15:12;;;;;;;;;;;;;;;;;;5046609;28;19904;-48
2022/06/04 09:17:38;;;;;;;;;;;;;;;;;;5046265;28;19912;-47
2022/06/04 09:20:05;;;;;;;;;;;;;;;;;;5046150;28;19939;-50
2022/06/04 09:22:31;;;;;;;;;;;;;;;;;;5046165;28;19916;-49
2022/06/04 09:24:57;;;;;;;;;;;;;;;;;;5046994;28;19901;-50
2022/06/04 09:27:23;;;;;;;;;;;;;;;;;;5046318;28;19905;-50
2022/06/04 09:29:49;;;;;;;;;;;;;;;;;;5046204;28;20019;-51
2022/06/04 09:32:15;;;;;;;;;;;;;;;;;;5046136;28;20353;-50
2022/06/04 09:34:40;;;;;;;;;;;;;;;;;;5045843;28;19912;-49
2022/06/04 09:37:07;;;;;;;;;;;;;;;;;;5046072;28;20375;-49
2022/06/04 09:39:33;;;;;;;;;;;;;;;;;;5045427;28;20398;-50
2022/06/04 09:41:59;;;;;;;;;;;;;;;;;;5045841;28;19995;-51
2022/06/04 09:44:25;;;;;;;;;;;;;;;;;;5046534;28;19908;-47
2022/06/04 09:46:51;;;;;;;;;;;;;;;;;;5045636;28;19916;-48
2022/06/04 09:49:17;;;;;;;;;;;;;;;;;;5045702;28;19904;-50
2022/06/04 09:51:44;;;;;;;;;;;;;;;;;;5045677;28;20376;-49
2022/06/04 09:54:10;;;;;;;;;;;;;;;;;;5045970;28;19909;-48
2022/06/04 09:56:36;;;;;;;;;;;;;;;;;;5045346;28;19924;-48
2022/06/04 09:59:02;;;;;;;;;;;;;;;;;;5044163;28;20293;-50
2022/06/04 10:01:29;;;;;;;;;;;;;;;;;;5045905;28;19904;-48
2022/06/04 10:03:56;;;;;;;;;;;;;;;;;;5046081;28;20418;-51
2022/06/04 10:06:22;;;;;;;;;;;;;;;;;;5045701;28;19948;-51
2022/06/04 10:11:33;;;;;;;;;;;;;;;;;;5045015;28;20009;-47
2022/06/04 10:13:59;;;;;;;;;;;;;;;;;;5045682;28;19951;-46
2022/06/04 10:16:25;;;;;;;;;;;;;;;;;;5048633;28;20349;-50
2022/06/04 10:18:51;;;;;;;;;;;;;;;;;;5066874;28;19908;-49
2022/06/04 10:21:18;;;;;;;;;;;;;;;;;;5049639;28;19999;-49
2022/06/04 10:23:44;;;;;;;;;;;;;;;;;;5069542;28;19912;-48
2022/06/04 10:26:10;;;;;;;;;;;;;;;;;;5066688;28;19905;-49
2022/06/04 10:28:36;;;;;;;;;;;;;;;;;;5066423;28;19918;-49
2022/06/04 10:31:02;;;;;;;;;;;;;;;;;;5063571;28;20379;-46
2022/06/04 10:33:29;;;;;;;;;;;;;;;;;;5063088;28;19919;-50
2022/06/04 10:35:57;;;;;;;;;;;;;;;;;;5046618;28;20403;-49
2022/06/04 10:38:23;;;;;;;;;;;;;;;;;;5047434;28;19962;-50
2022/06/04 10:40:49;;;;;;;;;;;;;;;;;;5065360;28;19916;-48
2022/06/04 10:43:15;;;;;;;;;;;;;;;;;;5046390;28;19908;-48
2022/06/04 10:45:41;;;;;;;;;;;;;;;;;;5045071;28;19958;-50
2022/06/04 10:48:07;;;;;;;;;;;;;;;;;;5064331;28;19912;-47
2022/06/04 10:51:25;;;;;;;;;;;;;;;;;;5069991;28;20446;-51
2022/06/04 10:53:19;;;;;;;;;;;;;;;;;;5068781;28;19913;-50
2022/06/04 10:55:45;;;;;;;;;;;;;;;;;;5066847;28;19939;-48
2022/06/04 10:58:11;;;;;;;;;;;;;;;;;;5063396;28;19913;-47
2022/06/04 11:00:37;;;;;;;;;;;;;;;;;;5062549;28;19916;-49
2022/06/04 11:03:03;;;;;;;;;;;;;;;;;;5058350;28;20352;-51
2022/06/04 11:05:29;;;;;;;;;;;;;;;;;;5058218;28;19919;-49
2022/06/04 11:07:57;;;;;;;;;;;;;;;;;;5069137;28;19986;-50
2022/06/04 11:10:23;;;;;;;;;;;;;;;;;;5059957;28;20295;-50
2022/06/04 11:12:53;;;;;;;1.48;0.90;;;;;;;;;;5048495;28;20410;-49
2022/06/04 11:15:38;;;;;;;1.55;1.00;;;;;;;;;;5071816;28;20103;-48
2022/06/04 11:18:12;;;;;;;3.40;1.17;;;;;;;;;;5086128;28;20085;-48
2022/06/04 11:20:38;;;;;;;;;;;;;;;;;;5076852;28;20575;-50
2022/06/04 11:23:04;;;;;;;;;;;;;;;;;;5077133;28;20566;-48
2022/06/04 11:25:32;;;;;;;;;;;;;;;;;;5050849;28;19909;-51
2022/06/04 11:27:58;;;;;;;;;;;;;;;;;;5079363;28;19911;-48
2022/06/04 11:30:24;;;;;;;;;;;;;;;;;;5073712;28;19909;-52
2022/06/04 11:32:50;;;;;;;;;;;;;;;;;;5051906;28;20362;-50
2022/06/04 11:35:16;;;;;;;;;;;;;;;;;;5052665;28;19916;-50
2022/06/04 11:37:42;;;;;;;;;;;;;;;;;;5075355;28;19944;-47
2022/06/04 11:40:08;;;;;;;;;;;;;;;;;;5070830;28;19944;-50
2022/06/04 11:42:34;;;;;;;;;;;;;;;;;;5069168;28;19909;-49
2022/06/04 11:45:00;;;;;;;;;;;;;;;;;;5069632;28;19908;-48
2022/06/04 11:47:26;;;;;;;;;;;;;;;;;;5069342;28;19905;-52
2022/06/04 11:49:52;;;;;;;;;;;;;;;;;;5069891;28;19954;-47
2022/06/04 11:52:17;;;;;;;;;;;;;;;;;;5074981;28;19913;-50
2022/06/04 11:54:43;;;;;;;;;;;;;;;;;;5067355;28;19938;-47
2022/06/04 11:57:09;;;;;;;;;;;;;;;;;;5067063;28;19983;-48
2022/06/04 11:59:35;;;;;;;;;;;;;;;;;;5071543;28;19927;-51
2022/06/04 12:02:01;;;;;;;;;;;;;;;;;;5052399;28;19908;-48
2022/06/04 12:04:27;;;;;;;;;;;;;;;;;;5068081;28;19908;-49
2022/06/04 12:06:53;;;;;;;;;;;;;;;;;;5069157;28;19912;-49
2022/06/04 12:09:19;;;;;;;;;;;;;;;;;;5069456;28;19911;-48
2022/06/04 12:11:45;;;;;;;;;;;;;;;;;;5067313;28;19913;-49
2022/06/04 12:14:11;;;;;;;;;;;;;;;;;;5067374;28;19954;-50
2022/06/04 12:16:37;;;;;;;;;;;;;;;;;;5066252;28;20077;-50
2022/06/04 12:19:03;;;;;;;;;;;;;;;;;;5089319;28;19948;-48
2022/06/04 12:24:17;;;;;;;;;;;;;;;;;;5060287;28;19916;-49
2022/06/04 12:26:48;;;;;;;;;;;;;;;;;;5056416;28;19909;-46
2022/06/04 12:29:14;;;;;;;;;;;;;;;;;;5063763;28;19912;-47
2022/06/04 12:31:40;;;;;;;;;;;;;;;;;;5071169;28;19908;-48
2022/06/04 12:34:06;;;;;;;;;;;;;;;;;;5071634;28;19908;-48
2022/06/04 12:36:33;;;;;;;;;;;;;;;;;;5069730;28;19912;-48
2022/06/04 12:38:59;;;;;;;;;;;;;;;;;;5073511;28;20438;-51
2022/06/04 12:41:26;;;;;;;;;;;;;;;;;;5067018;28;19912;-46
2022/06/04 12:43:52;;;;;;;;;;;;;;;;;;5067438;28;19964;-49
2022/06/04 12:46:18;;;;;;;;;;;;;;;;;;5073544;28;19912;-49
2022/06/04 12:48:45;;;;;;;;;;;;;;;;;;5080599;28;19961;-49
2022/06/04 12:51:11;;;;;;;;;;;;;;;;;;5067805;28;19957;-48
2022/06/04 12:53:37;;;;;;;;;;;;;;;;;;5069418;28;19915;-47
2022/06/04 12:56:04;;;;;;;;;;;;;;;;;;5067912;28;19916;-50
2022/06/04 12:58:30;;;;;;;;;;;;;;;;;;5060539;28;19908;-50
2022/06/04 13:00:56;;;;;;;;;;;;;;;;;;5062001;28;19913;-48
2022/06/04 13:03:23;;;;;;;;;;;;;;;;;;5060183;28;19918;-48
2022/06/04 13:05:50;;;;;;;;;;;;;;;;;;5047805;28;19911;-48
2022/06/04 13:08:16;;;;;;;;;;;;;;;;;;5066473;28;19908;-47
2022/06/04 13:10:42;;;;;;;;;;;;;;;;;;5075624;28;19912;-48
2022/06/04 13:13:09;;;;;;;;;;;;;;;;;;5067454;28;20280;-50
2022/06/04 13:15:35;;;;;;;;;;;;;;;;;;5067594;28;19950;-49
2022/06/04 13:18:01;;;;;;;;;;;;;;;;;;5067658;28;19974;-48
2022/06/04 13:20:28;;;;;;;;;;;;;;;;;;5072744;28;19923;-50
2022/06/04 13:22:54;;;;;;;;;;;;;;;;;;5072292;28;19911;-47
2022/06/04 13:25:21;;;;;;;;;;;;;;;;;;5067320;28;19909;-47
2022/06/04 13:27:47;;;;;;;;;;;;;;;;;;5072317;28;19909;-47
2022/06/04 13:30:14;;;;;;;;;;;;;;;;;;5086167;28;19912;-48
2022/06/04 13:32:40;;;;;;;;;;;;;;;;;;5085709;28;19908;-48
2022/06/04 13:35:07;;;;;;;;;;;;;;;;;;5081641;28;19908;-50
2022/06/04 13:37:33;;;;;;;;;;;;;;;;;;5050056;28;19966;-47
2022/06/04 13:40:01;;;;;;;;;;;;;;;;;;5061783;28;19916;-51
2022/06/04 13:42:27;;;;;;;;;;;;;;;;;;5060191;28;19934;-51
2022/06/04 13:44:53;;;;;;;;;;;;;;;;;;5082064;28;19918;-48
2022/06/04 13:47:19;;;;;;;;;;;;;;;;;;5069162;28;19904;-47
2022/06/04 13:49:45;;;;;;;;;;;;;;;;;;5065245;28;20357;-48
2022/06/04 13:52:11;;;;;;;;;;;;;;;;;;5065703;28;19914;-48
2022/06/04 13:54:37;;;;;;;;;;;;;;;;;;5050860;28;19909;-50
2022/06/04 13:57:03;;;;;;;;;;;;;;;;;;5047998;28;20395;-48
2022/06/04 13:59:29;;;;;;;;;;;;;;;;;;5061390;28;19920;-47
2022/06/04 14:01:56;;;;;;;;;;;;;;;;;;5059386;28;19974;-48
2022/06/04 14:07:06;;;;;;;;;;;;;;;;;;5077143;28;20425;-49
2022/06/04 14:09:33;;;;;;;;;;;;;;;;;;5063259;28;19916;-47
2022/06/04 14:12:00;;;;;;;;;;;;;;;;;;5077842;28;19911;-48
2022/06/04 14:14:26;;;;;;;;;;;;;;;;;;5049958;28;19905;-46
2022/06/04 14:16:52;;;;;;;;;;;;;;;;;;5067687;28;19904;-49
2022/06/04 14:19:18;;;;;;;;;;;;;;;;;;5064787;28;19990;-47
2022/06/04 14:21:44;;;;;;;;;;;;;;;;;;5073035;28;20374;-49
2022/06/04 14:24:09;;;;;;;;;;;;;;;;;;5068718;28;19915;-48
2022/06/04 14:26:35;;;;;;;;;;;;;;;;;;5066092;28;19920;-47
2022/06/04 14:29:02;;;;;;;;;;;;;;;;;;5065114;28;20371;-50
2022/06/04 14:31:28;;;;;;;;;;;;;;;;;;5065004;28;19934;-49
2022/06/04 14:33:54;;;;;;;;;;;;;;;;;;5067240;28;20354;-48
2022/06/04 14:36:20;;;;;;;;;;;;;;;;;;5066969;28;19954;-48
2022/06/04 14:38:46;;;;;;;;;;;;;;;;;;5068395;28;19912;-50
2022/06/04 14:41:13;;;;;;;;;;;;;;;;;;5063660;28;19912;-46
2022/06/04 14:43:38;;;;;;;;;;;;;;;;;;5045151;28;20412;-51
2022/06/04 14:46:04;;;;;;;;;;;;;;;;;;5053941;28;19908;-49
2022/06/04 14:48:30;;;;;;;;;;;;;;;;;;5049886;28;19971;-50
2022/06/04 14:50:56;;;;;;;;;;;;;;;;;;5081199;28;19961;-50
2022/06/04 14:53:22;;;;;;;;;;;;;;;;;;5072416;28;19908;-47
2022/06/04 14:55:49;;;;;;;;;;;;;;;;;;5065066;28;19923;-49
2022/06/04 14:58:15;;;;;;;;;;;;;;;;;;5058407;28;19939;-47
2022/06/04 15:00:41;;;;;;;;;;;;;;;;;;5055559;28;19913;-51
2022/06/04 15:03:07;;;;;;;;;;;;;;;;;;5063569;28;19918;-49
2022/06/04 15:05:33;;;;;;;;;;;;;;;;;;5065361;28;19915;-51
2022/06/04 15:08:00;;;;;;;;;;;;;;;;;;5047870;28;19913;-51
2022/06/04 15:10:26;;;;;;;;;;;;;;;;;;5058294;28;20389;-49
2022/06/04 15:12:52;;;;;;;;;;;;;;;;;;5065242;28;19905;-52
2022/06/04 15:15:18;;;;;;;;;;;;;;;;;;5065583;28;20303;-50
2022/06/04 15:17:44;;;;;;;;;;;;;;;;;;5061526;28;19974;-50
2022/06/04 15:20:10;;;;;;;;;;;;;;;;;;5045412;28;19942;-48
2022/06/04 15:22:36;;;;;;;;;;;;;;;;;;5057294;28;20003;-49
2022/06/04 15:25:02;;;;;;;;;;;;;;;;;;5065833;28;19908;-47
2022/06/04 15:27:28;;;;;;;;;;;;;;;;;;5061751;28;19919;-48
2022/06/04 15:35:24;;;;;;;;;;;;;;;;;;5066940;28;20409;-49
2022/06/04 15:37:50;;;;;;;;;;;;;;;;;;5047173;28;19905;-52
2022/06/04 15:40:17;;;;;;;;;;;;;;;;;;5065647;28;20310;-47
2022/06/04 15:42:44;;;;;;;;;;;;;;;;;;5067902;28;19999;-48
2022/06/04 15:45:10;;;;;;;;;;;;;;;;;;5055533;28;19991;-49
2022/06/04 15:47:36;;;;;;;;;;;;;;;;;;5077150;28;20421;-50
2022/06/04 15:55:33;;;;;;;;;;;;;;;;;;5066754;28;19958;-50
2022/06/04 15:57:59;;;;;;;;;;;;;;;;;;5069805;28;19919;-50
2022/06/04 16:00:25;;;;;;;;;;;;;;;;;;5072163;28;19921;-49
2022/06/04 16:02:52;;;;;;;;;;;;;;;;;;5065056;28;19908;-48
2022/06/04 16:05:18;;;;;;;;;;;;;;;;;;5072321;28;20239;-50
2022/06/04 16:07:44;;;;;;;;;;;;;;;;;;5065764;28;20331;-49
2022/06/04 16:10:10;;;;;;;;;;;;;;;;;;5069508;28;19912;-50
2022/06/04 16:12:37;;;;;;;;;;;;;;;;;;5071663;28;19904;-50
2022/06/04 16:15:03;;;;;;;;;;;;;;;;;;5073381;28;19908;-51
2022/06/04 16:17:29;;;;;;;;;;;;;;;;;;5060758;28;20007;-51
2022/06/04 16:19:55;;;;;;;;;;;;;;;;;;5065436;28;19919;-51
2022/06/04 16:22:22;;;;;;;;;;;;;;;;;;5057217;28;19905;-47
2022/06/04 16:24:48;;;;;;;;;;;;;;;;;;5047804;28;19919;-47
2022/06/04 16:27:14;;;;;;;;;;;;;;;;;;5059425;28;20361;-47
2022/06/04 16:29:40;;;;;;;;;;;;;;;;;;5066651;28;19914;-48
2022/06/04 16:32:06;;;;;;;;;;;;;;;;;;5062973;28;19909;-51
2022/06/04 16:34:32;;;;;;;;;;;;;;;;;;5061253;28;20279;-47
2022/06/04 16:36:59;;;;;;;;;;;;;;;;;;5072451;28;20442;-50
2022/06/04 16:39:25;;;;;;;;;;;;;;;;;;5065719;28;19917;-50
2022/06/04 16:41:54;;;;;;;;;;;;;;;;;;5070756;28;19916;-47
2022/06/04 16:44:19;;;;;;;;;;;;;;;;;;5071485;28;20117;-48
2022/06/04 16:46:45;;;;;;;;;;;;;;;;;;5075293;28;20374;-47
2022/06/04 16:51:56;;;;;;;;;;;;;;;;;;5064862;28;19915;-47
2022/06/04 16:54:22;;;;;;;;;;;;;;;;;;5064368;28;20352;-48
2022/06/04 16:56:48;;;;;;;;;;;;;;;;;;5066516;28;19930;-47
2022/06/04 16:59:16;;;;;;;;;;;;;;;;;;5072904;28;20311;-50
2022/06/04 17:01:43;;;;;;;;;;;;;;;;;;5071912;28;19916;-49
2022/06/04 17:04:09;;;;;;;;;;;;;;;;;;5062116;28;19966;-48